createdAt,value
2018-11-07T00:00:05.381Z,99079.00
2018-11-07T00:02:34.521Z,99074.00
2018-11-07T00:05:03.449Z,99078.00
2018-11-07T00:07:32.545Z,99080.00
2018-11-07T00:10:01.417Z,99078.00
2018-11-07T00:12:30.542Z,99080.00
2018-11-07T00:14:59.440Z,99090.00
2018-11-07T00:17:28.546Z,99076.00
2018-11-07T00:19:57.685Z,99072.00
2018-11-07T00:22:26.818Z,99061.00
2018-11-07T00:24:55.726Z,99060.00
2018-11-07T00:27:24.825Z,99066.00
2018-11-07T00:29:53.701Z,99073.00
2018-11-07T00:32:22.799Z,99066.00
2018-11-07T00:34:52.079Z,99056.00
2018-11-07T00:37:21.174Z,99050.00
2018-11-07T00:39:50.201Z,99056.00
2018-11-07T00:42:19.179Z,99051.00
2018-11-07T00:44:48.023Z,99053.00
2018-11-07T00:47:17.134Z,99051.00
2018-11-07T00:49:46.044Z,99052.00
2018-11-07T00:52:15.141Z,99052.00
2018-11-07T00:54:44.037Z,99055.00
2018-11-07T00:57:13.154Z,99042.00
2018-11-07T00:59:42.286Z,99059.00
2018-11-07T01:02:11.402Z,99051.00
2018-11-07T01:04:40.510Z,99059.00
2018-11-07T01:07:09.601Z,99050.00
2018-11-07T01:09:38.765Z,99054.00
2018-11-07T01:12:07.846Z,99066.00
2018-11-07T01:14:36.724Z,99054.00
2018-11-07T01:17:05.613Z,99055.00
2018-11-07T01:19:34.738Z,99054.00
2018-11-07T01:22:03.613Z,99060.00
2018-11-07T01:24:32.702Z,99059.00
2018-11-07T01:32:57.320Z,99083.00
2018-11-07T01:35:26.507Z,99074.00
2018-11-07T01:37:55.423Z,99081.00
2018-11-07T01:40:24.571Z,99071.00
2018-11-07T01:42:53.480Z,99074.00
2018-11-07T01:45:22.711Z,99072.00
2018-11-07T01:47:51.870Z,99068.00
2018-11-07T01:50:21.424Z,99064.00
2018-11-07T01:52:50.451Z,99068.00
2018-11-07T01:55:19.652Z,99073.00
2018-11-07T01:57:49.408Z,99056.00
2018-11-07T02:00:18.467Z,99063.00
2018-11-07T02:02:47.848Z,99068.00
2018-11-07T02:05:17.130Z,99065.00
2018-11-07T02:07:46.078Z,99065.00
2018-11-07T02:10:15.291Z,99060.00
2018-11-07T02:12:44.192Z,99058.00
2018-11-07T02:15:13.229Z,99057.00
2018-11-07T02:17:42.144Z,99065.00
2018-11-07T02:20:12.342Z,99072.00
2018-11-07T02:22:42.043Z,99063.00
2018-11-07T02:25:11.227Z,99067.00
2018-11-07T02:27:40.886Z,99062.00
2018-11-07T02:30:13.850Z,99066.00
2018-11-07T02:32:42.827Z,99067.00
2018-11-07T02:35:12.001Z,99070.00
2018-11-07T02:37:41.464Z,99069.00
2018-11-07T02:40:10.979Z,99071.00
2018-11-07T02:42:40.278Z,99065.00
2018-11-07T02:45:09.338Z,99075.00
2018-11-07T02:47:38.948Z,99064.00
2018-11-07T02:50:08.660Z,99066.00
2018-11-07T02:52:37.815Z,99076.00
2018-11-07T02:55:07.019Z,99073.00
2018-11-07T02:57:36.270Z,99069.00
2018-11-07T03:00:07.391Z,99074.00
2018-11-07T03:02:36.588Z,99070.00
2018-11-07T03:05:05.956Z,99071.00
2018-11-07T03:07:35.253Z,99075.00
2018-11-07T03:10:05.726Z,99079.00
2018-11-07T03:12:34.743Z,99077.00
2018-11-07T03:15:03.735Z,99075.00
2018-11-07T03:17:32.781Z,99074.00
2018-11-07T03:20:01.870Z,99085.00
2018-11-07T03:22:31.119Z,99073.00
2018-11-07T03:25:00.046Z,99077.00
2018-11-07T03:27:29.252Z,99076.00
2018-11-07T03:29:58.180Z,99071.00
2018-11-07T03:32:27.339Z,99085.00
2018-11-07T03:34:56.415Z,99077.00
2018-11-07T03:37:25.686Z,99077.00
2018-11-07T03:39:55.017Z,99073.00
2018-11-07T03:42:24.121Z,99073.00
2018-11-07T03:44:53.280Z,99077.00
2018-11-07T03:47:22.242Z,99072.00
2018-11-07T03:49:51.395Z,99070.00
2018-11-07T03:52:20.339Z,99080.00
2018-11-07T03:54:49.831Z,99072.00
2018-11-07T03:57:18.818Z,99080.00
2018-11-07T03:59:48.045Z,99085.00
2018-11-07T04:02:17.286Z,99083.00
2018-11-07T04:04:46.451Z,99079.00
2018-11-07T04:07:15.871Z,99082.00
2018-11-07T04:09:44.877Z,99081.00
2018-11-07T04:12:14.080Z,99086.00
2018-11-07T04:14:42.986Z,99079.00
2018-11-07T04:17:12.078Z,99081.00
2018-11-07T04:19:41.112Z,99091.00
2018-11-07T04:22:10.422Z,99092.00
2018-11-07T04:24:39.404Z,99096.00
2018-11-07T04:27:08.445Z,99088.00
2018-11-07T04:29:37.408Z,99087.00
2018-11-07T04:32:06.727Z,99082.00
2018-11-07T04:34:35.984Z,99087.00
2018-11-07T04:37:05.426Z,99085.00
2018-11-07T04:39:34.579Z,99090.00
2018-11-07T04:42:03.606Z,99089.00
2018-11-07T04:44:32.842Z,99098.00
2018-11-07T04:47:03.300Z,99098.00
2018-11-07T04:49:32.228Z,99099.00
2018-11-07T04:52:01.417Z,99098.00
2018-11-07T04:54:30.614Z,99094.00
2018-11-07T04:56:59.847Z,99095.00
2018-11-07T04:59:29.025Z,99094.00
2018-11-07T05:01:57.970Z,99101.00
2018-11-07T05:04:27.112Z,99102.00
2018-11-07T05:06:56.052Z,99106.00
2018-11-07T05:09:25.211Z,99093.00
2018-11-07T05:11:54.208Z,99102.00
2018-11-07T05:14:23.139Z,99099.00
2018-11-07T05:16:52.039Z,99103.00
2018-11-07T05:19:21.202Z,99095.00
2018-11-07T05:21:51.507Z,99094.00
2018-11-07T05:24:20.447Z,99097.00
2018-11-07T05:26:49.601Z,99097.00
2018-11-07T05:29:18.524Z,99103.00
2018-11-07T05:31:47.738Z,99114.00
2018-11-07T05:34:16.625Z,99107.00
2018-11-07T05:36:45.791Z,99118.00
2018-11-07T05:39:14.809Z,99116.00
2018-11-07T05:41:43.734Z,99121.00
2018-11-07T05:44:12.675Z,99124.00
2018-11-07T05:46:41.611Z,99125.00
2018-11-07T05:49:10.809Z,99129.00
2018-11-07T05:51:39.672Z,99122.00
2018-11-07T05:54:09.071Z,99122.00
2018-11-07T05:56:38.234Z,99126.00
2018-11-07T05:59:07.211Z,99129.00
2018-11-07T06:01:36.389Z,99137.00
2018-11-07T06:04:05.769Z,99132.00
2018-11-07T06:06:34.942Z,99132.00
2018-11-07T06:09:05.427Z,99132.00
2018-11-07T06:11:34.778Z,99134.00
2018-11-07T06:14:03.742Z,99131.00
2018-11-07T06:16:32.910Z,99138.00
2018-11-07T06:19:01.836Z,99146.00
2018-11-07T06:21:30.742Z,99149.00
2018-11-07T06:23:59.682Z,99155.00
2018-11-07T06:26:28.848Z,99153.00
2018-11-07T06:28:57.875Z,99165.00
2018-11-07T06:31:27.048Z,99163.00
2018-11-07T06:33:56.019Z,99155.00
2018-11-07T06:36:25.332Z,99160.00
2018-11-07T06:38:54.306Z,99162.00
2018-11-07T06:41:23.473Z,99162.00
2018-11-07T06:43:52.394Z,99170.00
2018-11-07T06:46:21.668Z,99174.00
2018-11-07T06:48:50.578Z,99179.00
2018-11-07T06:51:19.748Z,99179.00
2018-11-07T06:53:48.679Z,99170.00
2018-11-07T06:56:17.909Z,99173.00
2018-11-07T06:58:46.838Z,99179.00
2018-11-07T07:01:15.862Z,99181.00
2018-11-07T07:03:44.763Z,99178.00
2018-11-07T07:06:13.895Z,99187.00
2018-11-07T07:08:42.851Z,99196.00
2018-11-07T07:11:11.987Z,99186.00
2018-11-07T07:13:41.135Z,99191.00
2018-11-07T07:16:10.283Z,99204.00
2018-11-07T07:18:39.243Z,99202.00
2018-11-07T07:21:08.215Z,99198.00
2018-11-07T07:23:37.121Z,99200.00
2018-11-07T07:26:06.067Z,99203.00
2018-11-07T07:28:34.994Z,99199.00
2018-11-07T07:31:10.917Z,99199.00
2018-11-07T07:33:40.227Z,99196.00
2018-11-07T07:36:09.324Z,99205.00
2018-11-07T07:38:38.250Z,99216.00
2018-11-07T07:41:07.448Z,99210.00
2018-11-07T07:43:36.691Z,99216.00
2018-11-07T07:46:05.643Z,99205.00
2018-11-07T07:48:34.567Z,99211.00
2018-11-07T07:51:03.735Z,99213.00
2018-11-07T07:53:32.671Z,99206.00
2018-11-07T07:56:01.887Z,99205.00
2018-11-07T07:58:31.266Z,99216.00
2018-11-07T08:01:00.256Z,99205.00
2018-11-07T08:03:29.467Z,99217.00
2018-11-07T08:05:58.439Z,99219.00
2018-11-07T08:08:27.841Z,99233.00
2018-11-07T08:10:57.007Z,99226.00
2018-11-07T08:13:26.318Z,99233.00
2018-11-07T08:15:55.595Z,99237.00
2018-11-07T08:18:24.537Z,99239.00
2018-11-07T08:20:53.471Z,99248.00
2018-11-07T08:23:22.405Z,99244.00
2018-11-07T08:25:51.687Z,99244.00
2018-11-07T08:28:20.711Z,99238.00
2018-11-07T08:30:50.036Z,99239.00
2018-11-07T08:33:19.027Z,99235.00
2018-11-07T08:35:48.175Z,99239.00
2018-11-07T08:38:17.178Z,99243.00
2018-11-07T08:40:46.377Z,99238.00
2018-11-07T08:43:15.426Z,99234.00
2018-11-07T08:45:44.909Z,99250.00
2018-11-07T08:48:13.919Z,99245.00
2018-11-07T08:50:43.080Z,99242.00
2018-11-07T08:53:12.264Z,99249.00
2018-11-07T08:55:41.325Z,99259.00
2018-11-07T08:58:10.604Z,99247.00
2018-11-07T09:00:39.608Z,99251.00
2018-11-07T09:03:09.344Z,99258.00
2018-11-07T09:05:38.792Z,99249.00
2018-11-07T09:08:07.839Z,99249.00
2018-11-07T09:10:37.169Z,99257.00
2018-11-07T09:13:06.480Z,99261.00
2018-11-07T09:15:35.519Z,99266.00
2018-11-07T09:18:04.825Z,99271.00
2018-11-07T09:20:33.824Z,99270.00
2018-11-07T09:23:02.839Z,99280.00
2018-11-07T09:25:31.802Z,99270.00
2018-11-07T09:28:00.979Z,99273.00
2018-11-07T09:30:30.285Z,99266.00
2018-11-07T09:32:59.647Z,99270.00
2018-11-07T09:35:28.892Z,99276.00
2018-11-07T09:37:58.083Z,99278.00
2018-11-07T09:40:27.306Z,99277.00
2018-11-07T09:42:56.230Z,99273.00
2018-11-07T09:45:27.140Z,99278.00
2018-11-07T09:47:56.197Z,99280.00
2018-11-07T09:50:25.247Z,99284.00
2018-11-07T09:52:54.536Z,99294.00
2018-11-07T09:55:23.862Z,99286.00
2018-11-07T09:57:52.802Z,99287.00
2018-11-07T10:00:22.387Z,99297.00
2018-11-07T10:02:51.595Z,99291.00
2018-11-07T10:05:21.396Z,99293.00
2018-11-07T10:07:50.667Z,99280.00
2018-11-07T10:10:21.259Z,99286.00
2018-11-07T10:12:50.655Z,99292.00
2018-11-07T10:15:20.126Z,99296.00
2018-11-07T10:17:49.239Z,99291.00
2018-11-07T10:20:20.780Z,99291.00
2018-11-07T10:22:54.327Z,99291.00
2018-11-07T10:25:23.299Z,99296.00
2018-11-07T10:27:54.059Z,99296.00
2018-11-07T10:30:23.133Z,99288.00
2018-11-07T10:32:52.259Z,99290.00
2018-11-07T10:35:21.228Z,99295.00
2018-11-07T10:40:27.827Z,99305.00
2018-11-07T10:42:57.170Z,99305.00
2018-11-07T10:45:26.774Z,99293.00
2018-11-07T10:47:55.819Z,99289.00
2018-11-07T10:50:25.125Z,99304.00
2018-11-07T10:52:54.820Z,99305.00
2018-11-07T10:55:23.983Z,99300.00
2018-11-07T10:57:54.781Z,99304.00
2018-11-07T11:00:29.244Z,99308.00
2018-11-07T11:03:15.509Z,99317.00
2018-11-07T11:05:44.759Z,99315.00
2018-11-07T11:10:55.731Z,99307.00
2018-11-07T11:13:25.524Z,99314.00
2018-11-07T11:15:54.490Z,99310.00
2018-11-07T11:18:23.799Z,99307.00
2018-11-07T11:20:52.793Z,99304.00
2018-11-07T11:23:22.068Z,99304.00
2018-11-07T11:25:51.389Z,99304.00
2018-11-07T11:28:20.576Z,99313.00
2018-11-07T11:30:49.548Z,99309.00
2018-11-07T11:33:18.509Z,99316.00
2018-11-07T11:35:47.775Z,99306.00
2018-11-07T11:38:16.931Z,99311.00
2018-11-07T11:40:46.280Z,99321.00
2018-11-07T11:43:15.319Z,99319.00
2018-11-07T11:45:44.323Z,99310.00
2018-11-07T11:48:13.270Z,99318.00
2018-11-07T11:50:42.443Z,99320.00
2018-11-07T11:53:11.409Z,99319.00
2018-11-07T11:55:40.438Z,99316.00
2018-11-07T11:58:09.487Z,99323.00
2018-11-07T12:00:38.923Z,99312.00
2018-11-07T12:03:08.283Z,99317.00
2018-11-07T12:05:37.275Z,99315.00
2018-11-07T12:08:06.614Z,99308.00
2018-11-07T12:10:35.495Z,99300.00
2018-11-07T12:13:05.172Z,99313.00
2018-11-07T12:15:34.393Z,99315.00
2018-11-07T12:18:03.622Z,99312.00
2018-11-07T12:20:32.803Z,99308.00
2018-11-07T12:23:01.866Z,99307.00
2018-11-07T12:25:31.078Z,99310.00
2018-11-07T12:28:00.039Z,99310.00
2018-11-07T12:30:29.272Z,99311.00
2018-11-07T12:32:58.604Z,99316.00
2018-11-07T12:35:27.891Z,99311.00
2018-11-07T12:37:57.316Z,99315.00
2018-11-07T12:40:26.383Z,99309.00
2018-11-07T12:42:55.570Z,99304.00
2018-11-07T12:45:24.492Z,99300.00
2018-11-07T12:47:53.784Z,99305.00
2018-11-07T12:50:23.981Z,99300.00
2018-11-07T12:52:52.997Z,99298.00
2018-11-07T12:55:22.757Z,99304.00
2018-11-07T12:57:51.829Z,99300.00
2018-11-07T13:00:22.374Z,99298.00
2018-11-07T13:02:51.511Z,99319.00
2018-11-07T13:05:21.182Z,99312.00
2018-11-07T13:07:51.036Z,99312.00
2018-11-07T13:10:21.143Z,99313.00
2018-11-07T13:12:50.904Z,99317.00
2018-11-07T13:15:19.938Z,99316.00
2018-11-07T13:17:49.843Z,99314.00
2018-11-07T13:20:20.150Z,99310.00
2018-11-07T13:22:50.431Z,99312.00
2018-11-07T13:25:19.606Z,99296.00
2018-11-07T13:27:48.799Z,99310.00
2018-11-07T13:30:18.892Z,99297.00
2018-11-07T13:32:48.222Z,99298.00
2018-11-07T13:35:17.925Z,99305.00
2018-11-07T13:37:47.961Z,99310.00
2018-11-07T13:40:21.467Z,99307.00
2018-11-07T13:42:50.666Z,99307.00
2018-11-07T13:45:20.284Z,99307.00
2018-11-07T13:47:50.615Z,99300.00
2018-11-07T13:50:19.990Z,99312.00
2018-11-07T13:52:48.967Z,99311.00
2018-11-07T13:55:17.951Z,99313.00
2018-11-07T13:57:47.329Z,99316.00
2018-11-07T14:00:21.836Z,99314.00
2018-11-07T14:02:52.003Z,99313.00
2018-11-07T14:05:21.392Z,99319.00
2018-11-07T14:07:50.218Z,99321.00
2018-11-07T14:10:19.473Z,99312.00
2018-11-07T14:12:48.461Z,99325.00
2018-11-07T14:15:17.413Z,99319.00
2018-11-07T14:17:46.555Z,99322.00
2018-11-07T14:20:15.471Z,99330.00
2018-11-07T14:22:44.408Z,99330.00
2018-11-07T14:25:14.058Z,99323.00
2018-11-07T14:27:43.071Z,99331.00
2018-11-07T14:30:14.350Z,99324.00
2018-11-07T14:32:51.667Z,99319.00
2018-11-07T14:35:21.097Z,99332.00
2018-11-07T14:37:50.147Z,99323.00
2018-11-07T14:40:19.107Z,99326.00
2018-11-07T14:42:48.304Z,99323.00
2018-11-07T14:45:17.240Z,99329.00
2018-11-07T14:47:46.239Z,99326.00
2018-11-07T14:50:15.365Z,99325.00
2018-11-07T14:52:44.293Z,99325.00
2018-11-07T14:55:13.670Z,99326.00
2018-11-07T14:57:42.852Z,99328.00
2018-11-07T15:00:14.997Z,99316.00
2018-11-07T15:02:44.756Z,99330.00
2018-11-07T15:05:14.797Z,99326.00
2018-11-07T15:07:44.518Z,99334.00
2018-11-07T15:10:14.348Z,99330.00
2018-11-07T15:12:43.371Z,99327.00
2018-11-07T15:15:14.807Z,99332.00
2018-11-07T15:17:43.756Z,99327.00
2018-11-07T15:20:14.102Z,99335.00
2018-11-07T15:22:43.107Z,99329.00
2018-11-07T15:25:13.311Z,99337.00
2018-11-07T15:27:43.674Z,99329.00
2018-11-07T15:30:14.255Z,99322.00
2018-11-07T15:32:43.882Z,99326.00
2018-11-07T15:35:13.135Z,99329.00
2018-11-07T15:37:42.076Z,99331.00
2018-11-07T15:40:14.414Z,99336.00
2018-11-07T15:42:43.824Z,99340.00
2018-11-07T15:45:16.420Z,99329.00
2018-11-07T15:47:45.849Z,99339.00
2018-11-07T15:50:20.443Z,99343.00
2018-11-07T15:52:50.054Z,99349.00
2018-11-07T15:55:20.600Z,99334.00
2018-11-07T15:57:51.049Z,99344.00
2018-11-07T16:00:20.355Z,99345.00
2018-11-07T16:02:49.560Z,99347.00
2018-11-07T16:05:18.580Z,99349.00
2018-11-07T16:07:47.769Z,99348.00
2018-11-07T16:10:17.006Z,99358.00
2018-11-07T16:12:46.149Z,99350.00
2018-11-07T16:15:16.364Z,99349.00
2018-11-07T16:17:45.809Z,99350.00
2018-11-07T16:20:16.234Z,99358.00
2018-11-07T16:22:45.925Z,99369.00
2018-11-07T16:25:15.136Z,99362.00
2018-11-07T16:27:44.960Z,99363.00
2018-11-07T16:30:15.632Z,99360.00
2018-11-07T16:32:44.852Z,99362.00
2018-11-07T16:35:14.371Z,99367.00
2018-11-07T16:37:44.608Z,99366.00
2018-11-07T16:40:14.788Z,99365.00
2018-11-07T16:42:44.569Z,99368.00
2018-11-07T16:45:15.190Z,99371.00
2018-11-07T16:47:44.333Z,99374.00
2018-11-07T16:50:14.338Z,99374.00
2018-11-07T16:52:43.356Z,99373.00
2018-11-07T16:55:12.494Z,99378.00
2018-11-07T16:57:41.395Z,99373.00
2018-11-07T17:00:16.051Z,99376.00
2018-11-07T17:02:45.729Z,99371.00
2018-11-07T17:05:15.419Z,99377.00
2018-11-07T17:07:44.534Z,99378.00
2018-11-07T17:10:14.241Z,99379.00
2018-11-07T17:12:43.189Z,99371.00
2018-11-07T17:15:12.155Z,99383.00
2018-11-07T17:17:41.627Z,99385.00
2018-11-07T17:20:12.090Z,99377.00
2018-11-07T17:22:41.535Z,99378.00
2018-11-07T17:25:12.470Z,99376.00
2018-11-07T17:27:42.217Z,99386.00
2018-11-07T17:30:12.785Z,99376.00
2018-11-07T17:32:42.189Z,99381.00
2018-11-07T17:35:14.945Z,99383.00
2018-11-07T17:37:45.664Z,99372.00
2018-11-07T17:40:18.469Z,99377.00
2018-11-07T17:42:47.759Z,99375.00
2018-11-07T17:45:18.955Z,99383.00
2018-11-07T17:47:48.572Z,99378.00
2018-11-07T17:50:18.394Z,99389.00
2018-11-07T17:52:47.552Z,99379.00
2018-11-07T17:55:17.247Z,99381.00
2018-11-07T17:57:46.406Z,99381.00
2018-11-07T18:00:17.686Z,99389.00
2018-11-07T18:02:46.639Z,99394.00
2018-11-07T18:05:15.641Z,99401.00
2018-11-07T18:07:44.612Z,99404.00
2018-11-07T18:10:15.075Z,99407.00
2018-11-07T18:12:44.816Z,99394.00
2018-11-07T18:15:13.779Z,99395.00
2018-11-07T18:17:42.981Z,99405.00
2018-11-07T18:20:13.246Z,99401.00
2018-11-07T18:22:42.472Z,99395.00
2018-11-07T18:25:12.884Z,99396.00
2018-11-07T18:27:42.365Z,99399.00
2018-11-07T18:30:13.761Z,99398.00
2018-11-07T18:32:43.319Z,99406.00
2018-11-07T18:35:13.848Z,99408.00
2018-11-07T18:37:43.004Z,99408.00
2018-11-07T18:40:13.610Z,99413.00
2018-11-07T18:42:42.648Z,99419.00
2018-11-07T18:45:12.148Z,99425.00
2018-11-07T18:47:43.691Z,99426.00
2018-11-07T18:50:14.029Z,99429.00
2018-11-07T18:52:43.164Z,99431.00
2018-11-07T18:55:13.267Z,99434.00
2018-11-07T18:57:43.288Z,99435.00
2018-11-07T19:00:15.251Z,99429.00
2018-11-07T19:02:45.020Z,99434.00
2018-11-07T19:05:14.251Z,99433.00
2018-11-07T19:07:43.585Z,99433.00
2018-11-07T19:10:15.002Z,99447.00
2018-11-07T19:12:44.841Z,99437.00
2018-11-07T19:15:14.849Z,99446.00
2018-11-07T19:17:44.792Z,99451.00
2018-11-07T19:20:15.124Z,99446.00
2018-11-07T19:22:44.107Z,99455.00
2018-11-07T19:25:14.244Z,99463.00
2018-11-07T19:27:44.226Z,99458.00
2018-11-07T19:30:15.440Z,99458.00
2018-11-07T19:32:54.346Z,99468.00
2018-11-07T19:35:23.598Z,99461.00
2018-11-07T19:37:52.886Z,99475.00
2018-11-07T19:42:59.180Z,99468.00
2018-11-07T19:45:28.389Z,99468.00
2018-11-07T19:47:57.379Z,99465.00
2018-11-07T19:50:26.327Z,99464.00
2018-11-07T19:52:55.283Z,99467.00
2018-11-07T19:55:25.062Z,99475.00
2018-11-07T19:57:56.795Z,99476.00
2018-11-07T20:00:25.802Z,99481.00
2018-11-07T20:02:54.995Z,99480.00
2018-11-07T20:05:23.958Z,99480.00
2018-11-07T20:07:53.357Z,99483.00
2018-11-07T20:10:22.822Z,99490.00
2018-11-07T20:12:51.719Z,99485.00
2018-11-07T20:15:21.684Z,99488.00
2018-11-07T20:17:50.664Z,99491.00
2018-11-07T20:20:19.663Z,99487.00
2018-11-07T20:22:48.959Z,99489.00
2018-11-07T20:25:17.914Z,99488.00
2018-11-07T20:27:46.938Z,99501.00
2018-11-07T20:30:17.671Z,99508.00
2018-11-07T20:32:46.655Z,99499.00
2018-11-07T20:35:17.143Z,99509.00
2018-11-07T20:37:46.384Z,99512.00
2018-11-07T20:40:16.736Z,99506.00
2018-11-07T20:42:46.020Z,99509.00
2018-11-07T20:45:15.558Z,99509.00
2018-11-07T20:47:44.528Z,99511.00
2018-11-07T20:50:17.399Z,99514.00
2018-11-07T20:52:46.995Z,99522.00
2018-11-07T20:55:16.254Z,99518.00
2018-11-07T20:57:45.182Z,99531.00
2018-11-07T21:00:19.155Z,99523.00
2018-11-07T21:02:48.600Z,99530.00
2018-11-07T21:05:17.806Z,99528.00
2018-11-07T21:07:47.102Z,99527.00
2018-11-07T21:10:17.971Z,99530.00
2018-11-07T21:12:47.562Z,99541.00
2018-11-07T21:15:17.708Z,99540.00
2018-11-07T21:17:47.157Z,99545.00
2018-11-07T21:20:16.223Z,99550.00
2018-11-07T21:22:45.303Z,99557.00
2018-11-07T21:25:14.524Z,99555.00
2018-11-07T21:27:43.627Z,99569.00
2018-11-07T21:30:14.484Z,99574.00
2018-11-07T21:32:43.997Z,99571.00
2018-11-07T21:35:13.437Z,99580.00
2018-11-07T21:37:43.311Z,99586.00
2018-11-07T21:40:14.335Z,99578.00
2018-11-07T21:42:43.755Z,99594.00
2018-11-07T21:45:13.509Z,99594.00
2018-11-07T21:47:43.142Z,99599.00
2018-11-07T21:50:13.669Z,99593.00
2018-11-07T21:52:42.658Z,99596.00
2018-11-07T21:55:11.947Z,99585.00
2018-11-07T21:57:40.973Z,99591.00
2018-11-07T22:00:13.287Z,99583.00
2018-11-07T22:02:42.586Z,99588.00
2018-11-07T22:05:12.251Z,99585.00
2018-11-07T22:07:41.835Z,99577.00
2018-11-07T22:10:11.718Z,99590.00
2018-11-07T22:12:40.625Z,99592.00
2018-11-07T22:15:10.459Z,99598.00
2018-11-07T22:17:39.745Z,99598.00
2018-11-07T22:20:10.557Z,99602.00
2018-11-07T22:22:39.728Z,99597.00
2018-11-07T22:25:08.718Z,99605.00
2018-11-07T22:27:37.671Z,99595.00
2018-11-07T22:30:08.457Z,99605.00
2018-11-07T22:32:37.796Z,99606.00
2018-11-07T22:35:07.459Z,99605.00
2018-11-07T22:37:36.379Z,99600.00
2018-11-07T22:40:06.391Z,99601.00
2018-11-07T22:42:35.322Z,99606.00
2018-11-07T22:45:04.391Z,99608.00
2018-11-07T22:47:33.339Z,99605.00
2018-11-07T22:50:02.271Z,99605.00
2018-11-07T22:52:31.246Z,99612.00
2018-11-07T22:55:00.203Z,99611.00
2018-11-07T22:57:29.423Z,99618.00
2018-11-07T22:59:58.675Z,99619.00
2018-11-07T23:02:27.598Z,99605.00
2018-11-07T23:04:56.795Z,99608.00
2018-11-07T23:07:25.708Z,99616.00
2018-11-07T23:09:54.763Z,99626.00
2018-11-07T23:12:23.686Z,99632.00
2018-11-07T23:14:52.848Z,99622.00
2018-11-07T23:17:21.777Z,99619.00
2018-11-07T23:19:50.975Z,99623.00
2018-11-07T23:22:19.913Z,99624.00
2018-11-07T23:24:49.137Z,99616.00
2018-11-07T23:29:53.315Z,99630.00
2018-11-07T23:32:22.274Z,99632.00
2018-11-07T23:34:51.458Z,99627.00
2018-11-07T23:37:20.391Z,99637.00
2018-11-07T23:39:49.362Z,99641.00
2018-11-07T23:42:18.287Z,99644.00
2018-11-07T23:44:47.454Z,99639.00
2018-11-07T23:47:16.430Z,99633.00
2018-11-07T23:49:45.334Z,99640.00
2018-11-07T23:52:18.488Z,99637.00
2018-11-07T23:54:47.424Z,99649.00
2018-11-07T23:57:16.450Z,99647.00
2018-11-07T23:59:45.579Z,99654.00
